createdAt,value
2023-02-15T00:00:33.578Z,99.90
2023-02-15T00:03:02.963Z,99.90
2023-02-15T00:05:33.980Z,99.90
2023-02-15T00:08:01.944Z,99.90
2023-02-15T00:10:37.082Z,99.90
2023-02-15T00:13:06.647Z,99.90
2023-02-15T00:15:36.963Z,99.90
2023-02-15T00:18:09.280Z,99.90
2023-02-15T00:20:38.668Z,99.90
2023-02-15T00:23:06.433Z,99.90
2023-02-15T00:25:37.276Z,99.90
2023-02-15T00:28:06.867Z,99.90
2023-02-15T00:30:37.873Z,99.90
2023-02-15T00:33:07.383Z,99.90
2023-02-15T00:35:41.786Z,99.90
2023-02-15T00:38:11.162Z,99.90
2023-02-15T00:40:41.801Z,99.90
2023-02-15T00:43:11.755Z,99.90
2023-02-15T00:45:43.896Z,99.90
2023-02-15T00:48:13.465Z,99.90
2023-02-15T00:50:44.254Z,99.90
2023-02-15T00:53:12.592Z,99.90
2023-02-15T00:55:41.807Z,99.90
2023-02-15T00:58:15.386Z,99.90
2023-02-15T01:00:45.699Z,99.90
2023-02-15T01:03:15.251Z,99.90
2023-02-15T01:05:44.107Z,99.90
2023-02-15T01:08:14.091Z,99.90
2023-02-15T01:10:44.593Z,99.90
2023-02-15T01:13:13.003Z,99.90
2023-02-15T01:15:43.971Z,99.90
2023-02-15T01:18:12.742Z,99.90
2023-02-15T01:20:42.547Z,99.90
2023-02-15T01:23:13.162Z,99.90
2023-02-15T01:25:42.272Z,99.90
2023-02-15T01:28:12.917Z,99.90
2023-02-15T01:30:42.244Z,99.90
2023-02-15T01:33:19.190Z,99.90
2023-02-15T01:35:47.869Z,99.90
2023-02-15T01:38:18.057Z,99.90
2023-02-15T01:40:46.039Z,99.90
2023-02-15T01:43:18.574Z,99.90
2023-02-15T01:45:48.852Z,99.90
2023-02-15T01:48:23.913Z,99.90
2023-02-15T01:51:02.774Z,99.90
2023-02-15T01:53:41.769Z,99.90
2023-02-15T01:56:27.854Z,99.90
2023-02-15T01:59:02.258Z,99.90
2023-02-15T02:01:29.613Z,99.90
2023-02-15T02:04:26.936Z,99.90
2023-02-15T02:06:57.686Z,99.90
2023-02-15T02:09:27.392Z,99.90
2023-02-15T02:11:56.452Z,99.90
2023-02-15T02:14:25.176Z,99.90
2023-02-15T02:20:53.407Z,99.90
2023-02-15T02:24:00.577Z,99.90
2023-02-15T02:26:42.439Z,99.90
2023-02-15T02:29:41.982Z,99.90
2023-02-15T02:32:46.876Z,99.90
2023-02-15T02:36:03.470Z,99.90
2023-02-15T02:39:08.514Z,99.90
2023-02-15T02:42:05.608Z,99.90
2023-02-15T02:44:54.034Z,99.90
2023-02-15T02:47:33.201Z,99.90
2023-02-15T02:50:07.977Z,99.90
2023-02-15T02:52:58.250Z,99.90
2023-02-15T02:55:40.028Z,99.90
2023-02-15T02:58:33.746Z,99.90
2023-02-15T03:01:08.089Z,99.90
2023-02-15T03:03:54.639Z,99.90
2023-02-15T03:06:42.545Z,99.90
2023-02-15T03:09:52.034Z,99.90
2023-02-15T03:12:36.900Z,99.90
2023-02-15T03:15:26.552Z,99.90
2023-02-15T03:18:06.134Z,99.90
2023-02-15T03:20:38.920Z,99.90
2023-02-15T03:23:21.618Z,99.90
2023-02-15T03:26:03.380Z,99.90
2023-02-15T03:28:54.568Z,99.90
2023-02-15T03:31:27.666Z,99.90
2023-02-15T03:34:12.503Z,99.90
2023-02-15T03:37:09.072Z,99.90
2023-02-15T03:40:26.304Z,99.90
2023-02-15T03:43:08.620Z,99.90
2023-02-15T03:45:39.289Z,99.90
2023-02-15T03:48:11.665Z,99.90
2023-02-15T03:51:03.697Z,99.90
2023-02-15T03:53:31.594Z,99.90
2023-02-15T03:56:01.223Z,99.90
2023-02-15T03:58:51.224Z,99.90
2023-02-15T04:02:11.955Z,99.90
2023-02-15T04:04:44.596Z,99.90
2023-02-15T04:07:15.588Z,99.90
2023-02-15T04:10:05.865Z,99.90
2023-02-15T04:12:35.232Z,99.90
2023-02-15T04:15:21.830Z,99.90
2023-02-15T04:17:52.908Z,99.90
2023-02-15T04:20:38.790Z,99.90
2023-02-15T04:23:27.738Z,99.90
2023-02-15T04:25:56.689Z,99.90
2023-02-15T04:28:23.653Z,99.90
2023-02-15T04:30:51.936Z,99.90
2023-02-15T04:33:19.080Z,99.90
2023-02-15T04:35:47.318Z,99.90
2023-02-15T04:38:14.507Z,99.90
2023-02-15T04:40:45.175Z,99.90
2023-02-15T04:43:13.232Z,99.90
2023-02-15T04:45:41.972Z,99.90
2023-02-15T04:48:10.558Z,99.90
2023-02-15T04:50:39.022Z,99.90
2023-02-15T04:53:06.820Z,99.90
2023-02-15T04:55:35.992Z,99.90
2023-02-15T04:58:04.719Z,99.90
2023-02-15T05:00:33.959Z,99.90
2023-02-15T05:03:02.310Z,99.90
2023-02-15T05:05:33.448Z,99.90
2023-02-15T05:08:02.599Z,99.90
2023-02-15T05:10:39.041Z,99.90
2023-02-15T05:13:06.408Z,99.90
2023-02-15T05:15:35.950Z,99.90
2023-02-15T05:18:07.284Z,99.90
2023-02-15T05:20:36.138Z,99.90
2023-02-15T05:23:06.795Z,99.90
2023-02-15T05:25:53.582Z,99.90
2023-02-15T05:28:22.685Z,99.90
2023-02-15T05:31:16.686Z,99.90
2023-02-15T05:33:44.534Z,99.90
2023-02-15T05:36:13.560Z,99.90
2023-02-15T05:38:45.275Z,99.90
2023-02-15T05:41:16.254Z,99.90
2023-02-15T05:43:43.424Z,99.90
2023-02-15T05:46:11.702Z,99.90
2023-02-15T05:48:39.339Z,99.90
2023-02-15T05:51:09.867Z,99.90
2023-02-15T05:53:39.942Z,99.90
2023-02-15T05:56:09.493Z,99.90
2023-02-15T05:58:45.471Z,99.90
2023-02-15T06:01:19.625Z,99.90
2023-02-15T06:03:47.557Z,99.90
2023-02-15T06:06:16.384Z,99.90
2023-02-15T06:08:44.649Z,99.90
2023-02-15T06:11:13.167Z,99.90
2023-02-15T06:13:43.476Z,99.90
2023-02-15T06:16:12.458Z,99.90
2023-02-15T06:18:43.168Z,99.90
2023-02-15T06:21:13.494Z,99.90
2023-02-15T06:23:41.919Z,99.90
2023-02-15T06:26:09.406Z,99.90
2023-02-15T06:28:38.866Z,99.90
2023-02-15T06:31:08.321Z,99.90
2023-02-15T06:33:35.465Z,99.90
2023-02-15T06:36:05.272Z,99.90
2023-02-15T06:38:33.696Z,99.90
2023-02-15T06:41:06.037Z,99.90
2023-02-15T06:43:35.234Z,99.90
2023-02-15T06:46:06.167Z,99.90
2023-02-15T06:48:34.641Z,99.90
2023-02-15T06:51:02.741Z,99.90
2023-02-15T06:53:33.014Z,99.90
2023-02-15T06:56:10.109Z,99.90
2023-02-15T06:58:42.673Z,99.90
2023-02-15T07:01:13.873Z,99.90
2023-02-15T07:03:43.778Z,99.90
2023-02-15T07:06:13.406Z,99.90
2023-02-15T07:08:43.627Z,99.90
2023-02-15T07:11:31.866Z,99.90
2023-02-15T07:14:03.670Z,99.90
2023-02-15T07:16:34.470Z,99.90
2023-02-15T07:19:02.827Z,99.90
2023-02-15T07:21:34.270Z,99.90
2023-02-15T07:24:06.663Z,99.90
2023-02-15T07:26:34.887Z,99.90
2023-02-15T07:29:08.071Z,99.90
2023-02-15T07:31:36.418Z,99.90
2023-02-15T07:34:06.791Z,99.90
2023-02-15T07:36:35.557Z,99.90
2023-02-15T07:39:04.604Z,99.90
2023-02-15T07:41:34.525Z,99.90
2023-02-15T07:44:05.729Z,99.90
2023-02-15T07:46:34.550Z,99.90
2023-02-15T07:49:05.339Z,99.90
2023-02-15T07:51:34.740Z,99.90
2023-02-15T07:54:01.975Z,99.90
2023-02-15T07:56:33.263Z,99.90
2023-02-15T07:59:06.376Z,99.90
2023-02-15T08:01:42.763Z,99.90
2023-02-15T08:04:12.059Z,99.90
2023-02-15T08:06:42.265Z,99.90
2023-02-15T08:09:10.553Z,99.90
2023-02-15T08:11:44.581Z,99.90
2023-02-15T08:14:23.233Z,99.90
2023-02-15T08:16:52.440Z,99.90
2023-02-15T08:19:41.458Z,99.90
2023-02-15T08:22:17.123Z,99.90
2023-02-15T08:24:44.636Z,99.90
2023-02-15T08:27:14.300Z,99.90
2023-02-15T08:29:43.612Z,99.90
2023-02-15T08:32:13.673Z,99.90
2023-02-15T08:34:42.613Z,99.90
2023-02-15T08:37:12.219Z,99.90
2023-02-15T08:39:40.468Z,99.90
2023-02-15T08:42:11.473Z,99.90
2023-02-15T08:44:42.216Z,99.90
2023-02-15T08:47:10.255Z,99.90
2023-02-15T08:49:46.656Z,99.90
2023-02-15T08:52:13.837Z,99.90
2023-02-15T08:54:44.940Z,99.90
2023-02-15T08:57:15.550Z,99.90
2023-02-15T08:59:42.872Z,99.90
2023-02-15T09:02:14.726Z,99.90
2023-02-15T09:04:42.317Z,99.90
2023-02-15T09:07:10.504Z,99.90
2023-02-15T09:09:41.705Z,99.90
2023-02-15T09:12:09.521Z,99.90
2023-02-15T09:14:40.167Z,99.90
2023-02-15T09:17:08.386Z,99.90
2023-02-15T09:19:35.403Z,99.90
2023-02-15T09:22:12.682Z,99.90
2023-02-15T09:24:43.605Z,99.90
2023-02-15T09:27:14.614Z,99.90
2023-02-15T09:29:44.951Z,99.90
2023-02-15T09:32:16.249Z,99.90
2023-02-15T09:34:46.950Z,99.90
2023-02-15T09:37:16.284Z,99.90
2023-02-15T09:39:49.126Z,99.90
2023-02-15T09:42:56.451Z,99.90
2023-02-15T09:45:49.664Z,99.90
2023-02-15T09:48:44.078Z,99.90
2023-02-15T09:51:40.827Z,99.90
2023-02-15T09:54:35.948Z,99.90
2023-02-15T09:57:44.889Z,99.90
2023-02-15T10:00:31.082Z,99.90
2023-02-15T10:03:38.982Z,99.90
2023-02-15T10:06:48.506Z,99.90
2023-02-15T10:09:28.625Z,99.90
2023-02-15T10:12:36.806Z,99.90
2023-02-15T10:15:41.111Z,99.90
2023-02-15T10:18:28.581Z,99.90
2023-02-15T10:21:27.212Z,99.90
2023-02-15T10:24:13.814Z,99.90
2023-02-15T10:26:48.866Z,99.90
2023-02-15T10:29:40.390Z,99.90
2023-02-15T10:32:27.754Z,99.90
2023-02-15T10:35:23.296Z,99.90
2023-02-15T10:38:25.224Z,99.90
2023-02-15T10:41:11.129Z,99.90
2023-02-15T10:44:18.289Z,99.90
2023-02-15T10:46:58.074Z,99.90
2023-02-15T10:49:54.331Z,99.90
2023-02-15T10:52:42.326Z,99.90
2023-02-15T10:55:40.930Z,99.90
2023-02-15T10:58:51.862Z,99.90
2023-02-15T11:01:54.880Z,99.90
2023-02-15T11:07:47.156Z,99.90
2023-02-15T11:10:40.744Z,99.90
2023-02-15T11:13:18.900Z,99.90
2023-02-15T11:16:02.164Z,99.90
2023-02-15T11:18:51.353Z,99.90
2023-02-15T11:21:32.339Z,99.90
2023-02-15T11:24:01.899Z,99.90
2023-02-15T11:26:45.535Z,99.90
2023-02-15T11:29:45.407Z,99.90
2023-02-15T11:32:36.407Z,99.90
2023-02-15T11:35:20.308Z,99.90
2023-02-15T11:38:13.175Z,99.90
2023-02-15T11:41:10.304Z,99.90
2023-02-15T11:43:49.084Z,99.90
2023-02-15T11:46:18.972Z,99.90
2023-02-15T11:48:46.087Z,99.90
2023-02-15T11:51:18.428Z,99.90
2023-02-15T11:53:47.550Z,99.90
2023-02-15T11:56:19.689Z,99.90
2023-02-15T11:59:27.802Z,99.90
2023-02-15T12:01:57.610Z,99.90
2023-02-15T12:04:47.389Z,99.90
2023-02-15T12:07:46.299Z,99.90
2023-02-15T12:10:37.356Z,99.90
2023-02-15T12:13:21.726Z,99.90
2023-02-15T12:15:54.739Z,99.90
2023-02-15T12:18:46.869Z,99.90
2023-02-15T12:21:28.191Z,99.90
2023-02-15T12:24:36.820Z,99.90
2023-02-15T12:27:22.468Z,99.90
2023-02-15T12:30:09.080Z,99.90
2023-02-15T12:33:08.909Z,99.90
2023-02-15T12:35:41.482Z,99.90
2023-02-15T12:38:16.812Z,99.90
2023-02-15T12:41:03.165Z,99.70
2023-02-15T12:43:43.260Z,99.00
2023-02-15T12:46:25.412Z,95.70
2023-02-15T12:49:29.713Z,92.80
2023-02-15T12:52:00.941Z,91.80
2023-02-15T12:54:47.550Z,90.30
2023-02-15T12:57:35.924Z,86.00
2023-02-15T13:00:29.413Z,85.90
2023-02-15T13:03:02.090Z,85.10
2023-02-15T13:05:45.648Z,84.60
2023-02-15T13:08:15.600Z,85.30
2023-02-15T13:11:16.191Z,83.10
2023-02-15T13:13:56.271Z,79.80
2023-02-15T13:16:42.902Z,78.70
2023-02-15T13:19:37.582Z,78.40
2023-02-15T13:22:35.831Z,78.80
2023-02-15T13:25:13.180Z,79.50
2023-02-15T13:27:46.339Z,80.70
2023-02-15T13:30:36.107Z,81.00
2023-02-15T13:33:12.936Z,79.90
2023-02-15T13:35:54.533Z,83.10
2023-02-15T13:38:57.872Z,88.20
2023-02-15T13:41:53.336Z,92.60
2023-02-15T13:45:06.493Z,92.70
2023-02-15T13:47:56.191Z,94.90
2023-02-15T13:50:45.502Z,94.20
2023-02-15T13:53:54.820Z,93.40
2023-02-15T13:57:08.830Z,94.50
2023-02-15T13:59:58.309Z,94.00
2023-02-15T14:03:21.203Z,94.90
2023-02-15T14:06:16.027Z,95.80
2023-02-15T14:09:39.586Z,97.80
2023-02-15T14:12:49.317Z,99.30
2023-02-15T14:15:36.894Z,99.90
2023-02-15T14:18:41.206Z,99.90
2023-02-15T14:21:46.615Z,99.90
2023-02-15T14:24:51.234Z,99.90
2023-02-15T14:27:59.408Z,99.90
2023-02-15T14:30:36.870Z,99.90
2023-02-15T14:33:37.329Z,99.90
2023-02-15T14:36:09.429Z,99.90
2023-02-15T14:39:08.235Z,99.90
2023-02-15T14:41:56.737Z,99.90
2023-02-15T14:44:46.536Z,99.90
2023-02-15T14:48:09.814Z,99.90
2023-02-15T14:50:59.503Z,99.90
2023-02-15T14:53:42.953Z,99.90
2023-02-15T14:56:28.866Z,99.90
2023-02-15T14:59:23.064Z,99.90
2023-02-15T15:02:13.979Z,99.90
2023-02-15T15:04:49.568Z,99.90
2023-02-15T15:07:32.478Z,99.90
2023-02-15T15:10:21.686Z,99.90
2023-02-15T15:13:29.641Z,99.90
2023-02-15T15:16:18.682Z,99.90
2023-02-15T15:18:53.393Z,99.90
2023-02-15T15:22:08.341Z,99.90
2023-02-15T15:24:55.455Z,99.90
2023-02-15T15:27:47.034Z,99.90
2023-02-15T15:30:14.669Z,99.90
2023-02-15T15:33:00.360Z,99.90
2023-02-15T15:36:14.802Z,99.90
2023-02-15T15:39:05.714Z,99.90
2023-02-15T15:41:58.055Z,99.90
2023-02-15T15:45:01.737Z,99.90
2023-02-15T15:48:05.233Z,99.90
2023-02-15T15:50:37.744Z,99.90
2023-02-15T15:53:10.331Z,99.90
2023-02-15T15:55:40.203Z,99.90
2023-02-15T15:58:10.321Z,99.90
2023-02-15T16:01:05.351Z,99.90
2023-02-15T16:03:38.428Z,99.90
2023-02-15T16:06:14.348Z,99.90
2023-02-15T16:08:47.604Z,99.90
2023-02-15T16:11:32.610Z,99.90
2023-02-15T16:14:04.494Z,99.90
2023-02-15T16:16:35.258Z,99.90
2023-02-15T16:19:12.824Z,99.90
2023-02-15T16:21:42.946Z,99.90
2023-02-15T16:24:16.982Z,99.90
2023-02-15T16:26:53.231Z,99.90
2023-02-15T16:29:32.285Z,99.90
2023-02-15T16:32:29.494Z,99.90
2023-02-15T16:35:05.852Z,99.90
2023-02-15T16:37:41.705Z,99.90
2023-02-15T16:40:43.145Z,99.90
2023-02-15T16:43:18.106Z,99.90
2023-02-15T16:45:48.438Z,99.90
2023-02-15T16:48:24.893Z,99.90
2023-02-15T16:51:02.705Z,99.90
2023-02-15T16:53:34.999Z,99.90
2023-02-15T16:56:10.333Z,99.90
2023-02-15T16:58:51.233Z,99.90
2023-02-15T17:01:36.364Z,99.90
2023-02-15T17:04:25.940Z,99.90
2023-02-15T17:07:23.269Z,99.90
2023-02-15T17:10:02.689Z,99.90
2023-02-15T17:13:02.660Z,99.90
2023-02-15T17:15:35.371Z,99.90
2023-02-15T17:18:24.556Z,99.90
2023-02-15T17:20:59.220Z,99.90
2023-02-15T17:23:49.276Z,99.90
2023-02-15T17:26:37.388Z,99.90
2023-02-15T17:29:29.793Z,99.90
2023-02-15T17:32:04.924Z,99.90
2023-02-15T17:35:13.669Z,99.90
2023-02-15T17:38:31.288Z,99.90
2023-02-15T17:41:02.655Z,99.90
2023-02-15T17:43:34.983Z,99.90
2023-02-15T17:46:17.815Z,99.90
2023-02-15T17:48:57.135Z,99.90
2023-02-15T17:54:34.760Z,99.90
2023-02-15T17:57:15.771Z,99.90
2023-02-15T18:00:08.172Z,99.90
2023-02-15T18:03:18.430Z,99.90
2023-02-15T18:09:13.442Z,99.90
2023-02-15T18:11:50.233Z,99.90
2023-02-15T18:14:22.410Z,99.90
2023-02-15T18:16:56.507Z,99.90
2023-02-15T18:19:29.811Z,99.90
2023-02-15T18:21:59.223Z,99.90
2023-02-15T18:24:33.538Z,99.90
2023-02-15T18:27:07.085Z,99.90
2023-02-15T18:29:37.950Z,99.90
2023-02-15T18:32:35.134Z,99.90
2023-02-15T18:35:11.684Z,99.90
2023-02-15T18:37:48.975Z,99.90
2023-02-15T18:40:33.800Z,99.90
2023-02-15T18:43:08.417Z,99.90
2023-02-15T18:45:37.829Z,99.90
2023-02-15T18:48:15.469Z,99.90
2023-02-15T18:50:54.155Z,99.90
2023-02-15T18:53:29.035Z,99.90
2023-02-15T18:56:03.797Z,99.90
2023-02-15T18:58:35.870Z,99.90
2023-02-15T19:01:06.689Z,99.90
2023-02-15T19:03:37.397Z,99.90
2023-02-15T19:06:09.922Z,99.90
2023-02-15T19:08:42.151Z,99.90
2023-02-15T19:11:21.464Z,99.90
2023-02-15T19:13:57.086Z,99.90
2023-02-15T19:16:46.955Z,99.90
2023-02-15T19:19:17.833Z,99.90
2023-02-15T19:21:47.869Z,99.90
2023-02-15T19:24:42.498Z,99.90
2023-02-15T19:27:38.682Z,99.90
2023-02-15T19:30:38.354Z,99.90
2023-02-15T19:33:22.980Z,99.90
2023-02-15T19:35:58.224Z,99.90
2023-02-15T19:38:39.259Z,99.90
2023-02-15T19:41:23.172Z,99.90
2023-02-15T19:43:59.888Z,99.90
2023-02-15T19:46:33.344Z,99.90
2023-02-15T19:49:07.854Z,99.90
2023-02-15T19:51:44.268Z,99.90
2023-02-15T19:54:43.649Z,99.90
2023-02-15T19:57:23.298Z,99.90
2023-02-15T20:02:42.935Z,99.90
2023-02-15T20:05:16.761Z,99.90
2023-02-15T20:07:52.165Z,99.90
2023-02-15T20:10:28.298Z,99.90
2023-02-15T20:13:04.078Z,99.90
2023-02-15T20:15:38.923Z,99.90
2023-02-15T20:18:22.299Z,99.90
2023-02-15T20:21:00.024Z,99.90
2023-02-15T20:23:35.726Z,99.90
2023-02-15T20:29:20.473Z,99.90
2023-02-15T20:31:59.086Z,99.90
2023-02-15T20:34:32.504Z,99.90
2023-02-15T20:37:03.171Z,99.90
2023-02-15T20:39:48.648Z,99.90
2023-02-15T20:42:23.058Z,99.90
2023-02-15T20:45:05.645Z,99.90
2023-02-15T20:47:46.022Z,99.90
2023-02-15T20:50:20.390Z,99.90
2023-02-15T20:52:56.182Z,99.90
2023-02-15T20:55:42.212Z,99.90
2023-02-15T20:58:33.480Z,99.90
2023-02-15T21:01:11.910Z,99.90
2023-02-15T21:03:50.323Z,99.90
2023-02-15T21:06:35.575Z,99.90
2023-02-15T21:09:09.061Z,99.90
2023-02-15T21:11:43.253Z,99.90
2023-02-15T21:14:25.426Z,99.90
2023-02-15T21:16:59.210Z,99.90
2023-02-15T21:19:39.057Z,99.90
2023-02-15T21:22:19.241Z,99.90
2023-02-15T21:24:58.651Z,99.90
2023-02-15T21:27:26.970Z,99.90
2023-02-15T21:30:01.477Z,99.90
2023-02-15T21:32:34.218Z,99.90
2023-02-15T21:35:02.102Z,99.90
2023-02-15T21:37:53.364Z,99.90
2023-02-15T21:40:44.598Z,99.90
2023-02-15T21:43:43.993Z,99.90
2023-02-15T21:46:43.902Z,99.90
2023-02-15T21:49:12.750Z,99.90
2023-02-15T21:52:05.000Z,99.90
2023-02-15T21:54:37.496Z,99.90
2023-02-15T21:57:09.590Z,99.90
2023-02-15T21:59:40.967Z,99.90
2023-02-15T22:02:31.280Z,99.90
2023-02-15T22:05:08.861Z,99.90
2023-02-15T22:07:37.049Z,99.90
2023-02-15T22:10:05.714Z,99.90
2023-02-15T22:12:34.067Z,99.90
2023-02-15T22:15:02.350Z,99.90
2023-02-15T22:17:33.042Z,99.90
2023-02-15T22:20:04.982Z,99.90
2023-02-15T22:22:33.537Z,99.90
2023-02-15T22:25:02.262Z,99.90
2023-02-15T22:27:41.489Z,99.90
2023-02-15T22:30:19.363Z,99.90
2023-02-15T22:32:46.741Z,99.90
2023-02-15T22:35:24.500Z,99.90
2023-02-15T22:37:53.641Z,99.90
2023-02-15T22:40:22.057Z,99.90
2023-02-15T22:42:54.862Z,99.90
2023-02-15T22:45:24.645Z,99.90
2023-02-15T22:47:58.376Z,99.90
2023-02-15T22:50:41.016Z,99.90
2023-02-15T22:53:09.768Z,99.90
2023-02-15T22:55:38.647Z,99.90
2023-02-15T22:58:07.354Z,99.90
2023-02-15T23:00:40.336Z,99.90
2023-02-15T23:03:28.934Z,99.90
2023-02-15T23:05:58.862Z,99.90
2023-02-15T23:08:29.385Z,99.90
2023-02-15T23:11:06.208Z,99.90
2023-02-15T23:13:35.998Z,99.90
2023-02-15T23:16:07.835Z,99.90
2023-02-15T23:18:38.764Z,99.90
2023-02-15T23:21:34.754Z,99.90
2023-02-15T23:24:25.434Z,99.90
2023-02-15T23:26:56.812Z,99.90
2023-02-15T23:29:24.422Z,99.90
2023-02-15T23:31:56.912Z,99.90
2023-02-15T23:34:29.428Z,99.90
2023-02-15T23:36:58.113Z,99.90
2023-02-15T23:39:46.650Z,99.90
2023-02-15T23:42:20.871Z,99.90
2023-02-15T23:44:50.093Z,99.90
2023-02-15T23:48:06.524Z,99.90
2023-02-15T23:50:37.506Z,99.90
2023-02-15T23:53:05.868Z,99.90
2023-02-15T23:55:43.708Z,99.90
2023-02-15T23:58:29.156Z,99.90
